sensor_id;sensor_type;location;lat;lon;timestamp;P1;durP1;ratioP1;P2;durP2;ratioP2
15112;SDS011;7657;50.140;7.076;2022-10-17T00:01:05;3.25;;;2.90;;
15112;SDS011;7657;50.140;7.076;2022-10-17T00:03:32;5.13;;;3.20;;
15112;SDS011;7657;50.140;7.076;2022-10-17T00:06:03;5.47;;;3.50;;
15112;SDS011;7657;50.140;7.076;2022-10-17T00:08:31;4.35;;;3.30;;
15112;SDS011;7657;50.140;7.076;2022-10-17T00:11:01;4.15;;;3.67;;
15112;SDS011;7657;50.140;7.076;2022-10-17T00:13:30;4.45;;;3.30;;
15112;SDS011;7657;50.140;7.076;2022-10-17T00:15:59;8.30;;;3.20;;
15112;SDS011;7657;50.140;7.076;2022-10-17T00:18:26;5.78;;;3.67;;
15112;SDS011;7657;50.140;7.076;2022-10-17T00:20:53;6.75;;;3.40;;
15112;SDS011;7657;50.140;7.076;2022-10-17T00:23:20;6.13;;;3.55;;
15112;SDS011;7657;50.140;7.076;2022-10-17T00:25:56;5.93;;;3.35;;
15112;SDS011;7657;50.140;7.076;2022-10-17T00:28:24;5.50;;;3.45;;
15112;SDS011;7657;50.140;7.076;2022-10-17T00:30:54;4.30;;;3.17;;
15112;SDS011;7657;50.140;7.076;2022-10-17T00:33:23;3.88;;;3.40;;
15112;SDS011;7657;50.140;7.076;2022-10-17T00:35:49;6.07;;;3.55;;
15112;SDS011;7657;50.140;7.076;2022-10-17T00:38:16;3.72;;;3.38;;
15112;SDS011;7657;50.140;7.076;2022-10-17T00:40:43;3.65;;;3.35;;
15112;SDS011;7657;50.140;7.076;2022-10-17T00:43:12;5.05;;;3.05;;
15112;SDS011;7657;50.140;7.076;2022-10-17T00:45:41;5.40;;;3.50;;
15112;SDS011;7657;50.140;7.076;2022-10-17T00:48:08;6.63;;;3.83;;
15112;SDS011;7657;50.140;7.076;2022-10-17T00:50:39;7.22;;;3.10;;
15112;SDS011;7657;50.140;7.076;2022-10-17T00:53:09;6.63;;;3.88;;
15112;SDS011;7657;50.140;7.076;2022-10-17T00:55:37;6.90;;;3.17;;
15112;SDS011;7657;50.140;7.076;2022-10-17T00:58:15;5.88;;;3.30;;
15112;SDS011;7657;50.140;7.076;2022-10-17T01:00:43;3.42;;;3.13;;
15112;SDS011;7657;50.140;7.076;2022-10-17T01:03:11;5.80;;;3.40;;
15112;SDS011;7657;50.140;7.076;2022-10-17T01:05:41;4.82;;;3.30;;
15112;SDS011;7657;50.140;7.076;2022-10-17T01:08:08;6.40;;;3.42;;
15112;SDS011;7657;50.140;7.076;2022-10-17T01:10:38;4.30;;;3.53;;
15112;SDS011;7657;50.140;7.076;2022-10-17T01:13:12;3.80;;;3.20;;
15112;SDS011;7657;50.140;7.076;2022-10-17T01:15:49;6.50;;;3.53;;
15112;SDS011;7657;50.140;7.076;2022-10-17T01:18:28;4.88;;;3.53;;
15112;SDS011;7657;50.140;7.076;2022-10-17T01:21:23;7.60;;;3.50;;
15112;SDS011;7657;50.140;7.076;2022-10-17T01:27:12;7.07;;;3.13;;
15112;SDS011;7657;50.140;7.076;2022-10-17T01:30:02;6.68;;;3.70;;
15112;SDS011;7657;50.140;7.076;2022-10-17T01:32:42;4.75;;;3.33;;
15112;SDS011;7657;50.140;7.076;2022-10-17T01:35:13;4.85;;;3.20;;
15112;SDS011;7657;50.140;7.076;2022-10-17T01:37:49;5.63;;;3.45;;
15112;SDS011;7657;50.140;7.076;2022-10-17T01:40:24;6.68;;;3.60;;
15112;SDS011;7657;50.140;7.076;2022-10-17T01:42:58;4.13;;;3.30;;
15112;SDS011;7657;50.140;7.076;2022-10-17T01:45:31;7.47;;;3.55;;
15112;SDS011;7657;50.140;7.076;2022-10-17T01:48:04;4.38;;;3.45;;
15112;SDS011;7657;50.140;7.076;2022-10-17T01:50:35;7.63;;;3.50;;
15112;SDS011;7657;50.140;7.076;2022-10-17T01:53:07;7.13;;;3.55;;
15112;SDS011;7657;50.140;7.076;2022-10-17T01:55:39;4.20;;;3.00;;
15112;SDS011;7657;50.140;7.076;2022-10-17T01:58:09;4.40;;;3.45;;
15112;SDS011;7657;50.140;7.076;2022-10-17T02:00:39;5.45;;;3.38;;
15112;SDS011;7657;50.140;7.076;2022-10-17T02:03:11;5.45;;;3.88;;
15112;SDS011;7657;50.140;7.076;2022-10-17T02:05:40;5.40;;;3.50;;
15112;SDS011;7657;50.140;7.076;2022-10-17T02:08:09;5.35;;;3.80;;
15112;SDS011;7657;50.140;7.076;2022-10-17T02:10:37;4.95;;;3.70;;
15112;SDS011;7657;50.140;7.076;2022-10-17T02:13:08;8.23;;;3.78;;
15112;SDS011;7657;50.140;7.076;2022-10-17T02:15:45;5.85;;;3.70;;
15112;SDS011;7657;50.140;7.076;2022-10-17T02:18:29;3.60;;;3.30;;
15112;SDS011;7657;50.140;7.076;2022-10-17T02:21:07;6.65;;;3.88;;
15112;SDS011;7657;50.140;7.076;2022-10-17T02:23:40;3.80;;;3.28;;
15112;SDS011;7657;50.140;7.076;2022-10-17T02:26:16;4.07;;;3.67;;
15112;SDS011;7657;50.140;7.076;2022-10-17T02:28:51;3.90;;;3.45;;
15112;SDS011;7657;50.140;7.076;2022-10-17T02:31:29;5.47;;;3.70;;
15112;SDS011;7657;50.140;7.076;2022-10-17T02:34:01;5.22;;;3.53;;
15112;SDS011;7657;50.140;7.076;2022-10-17T02:36:31;6.22;;;3.78;;
15112;SDS011;7657;50.140;7.076;2022-10-17T02:39:03;6.82;;;3.80;;
15112;SDS011;7657;50.140;7.076;2022-10-17T02:41:31;4.63;;;3.95;;
15112;SDS011;7657;50.140;7.076;2022-10-17T02:43:59;4.72;;;3.40;;
15112;SDS011;7657;50.140;7.076;2022-10-17T02:46:30;4.82;;;4.07;;
15112;SDS011;7657;50.140;7.076;2022-10-17T02:49:01;4.20;;;3.58;;
15112;SDS011;7657;50.140;7.076;2022-10-17T02:51:35;4.32;;;3.92;;
15112;SDS011;7657;50.140;7.076;2022-10-17T02:54:08;6.45;;;3.70;;
15112;SDS011;7657;50.140;7.076;2022-10-17T02:56:42;9.10;;;4.30;;
15112;SDS011;7657;50.140;7.076;2022-10-17T02:59:16;5.88;;;3.75;;
15112;SDS011;7657;50.140;7.076;2022-10-17T03:01:46;7.45;;;4.07;;
15112;SDS011;7657;50.140;7.076;2022-10-17T03:04:17;6.47;;;3.50;;
15112;SDS011;7657;50.140;7.076;2022-10-17T03:06:44;8.90;;;3.60;;
15112;SDS011;7657;50.140;7.076;2022-10-17T03:09:13;4.95;;;3.55;;
15112;SDS011;7657;50.140;7.076;2022-10-17T03:11:40;4.65;;;3.80;;
15112;SDS011;7657;50.140;7.076;2022-10-17T03:14:07;5.90;;;3.78;;
15112;SDS011;7657;50.140;7.076;2022-10-17T03:16:34;4.95;;;3.13;;
15112;SDS011;7657;50.140;7.076;2022-10-17T03:19:01;4.15;;;3.63;;
15112;SDS011;7657;50.140;7.076;2022-10-17T03:21:29;6.03;;;3.50;;
15112;SDS011;7657;50.140;7.076;2022-10-17T03:23:56;5.55;;;3.65;;
15112;SDS011;7657;50.140;7.076;2022-10-17T03:26:23;4.28;;;3.88;;
15112;SDS011;7657;50.140;7.076;2022-10-17T03:28:50;5.80;;;3.47;;
15112;SDS011;7657;50.140;7.076;2022-10-17T03:31:17;7.53;;;3.53;;
15112;SDS011;7657;50.140;7.076;2022-10-17T03:33:44;6.55;;;3.50;;
15112;SDS011;7657;50.140;7.076;2022-10-17T03:36:13;7.82;;;3.92;;
15112;SDS011;7657;50.140;7.076;2022-10-17T03:38:43;4.28;;;3.65;;
15112;SDS011;7657;50.140;7.076;2022-10-17T03:41:10;5.50;;;3.40;;
15112;SDS011;7657;50.140;7.076;2022-10-17T03:43:38;5.07;;;3.45;;
15112;SDS011;7657;50.140;7.076;2022-10-17T03:46:05;5.75;;;3.42;;
15112;SDS011;7657;50.140;7.076;2022-10-17T03:48:32;6.45;;;3.67;;
15112;SDS011;7657;50.140;7.076;2022-10-17T03:51:00;4.50;;;3.40;;
15112;SDS011;7657;50.140;7.076;2022-10-17T03:53:29;4.40;;;3.70;;
15112;SDS011;7657;50.140;7.076;2022-10-17T03:56:07;6.30;;;3.70;;
15112;SDS011;7657;50.140;7.076;2022-10-17T03:58:35;3.72;;;3.28;;
15112;SDS011;7657;50.140;7.076;2022-10-17T04:01:02;5.00;;;3.50;;
15112;SDS011;7657;50.140;7.076;2022-10-17T04:03:30;6.20;;;3.80;;
15112;SDS011;7657;50.140;7.076;2022-10-17T04:05:57;6.47;;;3.75;;
15112;SDS011;7657;50.140;7.076;2022-10-17T04:08:24;5.65;;;3.30;;
15112;SDS011;7657;50.140;7.076;2022-10-17T04:10:52;4.68;;;3.40;;
15112;SDS011;7657;50.140;7.076;2022-10-17T04:13:24;5.20;;;3.20;;
15112;SDS011;7657;50.140;7.076;2022-10-17T04:15:54;3.05;;;2.85;;
15112;SDS011;7657;50.140;7.076;2022-10-17T04:18:21;4.95;;;2.97;;
15112;SDS011;7657;50.140;7.076;2022-10-17T04:20:49;4.60;;;3.08;;
15112;SDS011;7657;50.140;7.076;2022-10-17T04:23:15;4.30;;;3.85;;
15112;SDS011;7657;50.140;7.076;2022-10-17T04:25:42;4.50;;;3.45;;
15112;SDS011;7657;50.140;7.076;2022-10-17T04:28:09;5.82;;;3.40;;
15112;SDS011;7657;50.140;7.076;2022-10-17T04:30:38;6.00;;;4.22;;
15112;SDS011;7657;50.140;7.076;2022-10-17T04:33:05;5.85;;;3.90;;
15112;SDS011;7657;50.140;7.076;2022-10-17T04:35:32;4.65;;;3.88;;
15112;SDS011;7657;50.140;7.076;2022-10-17T04:37:59;5.30;;;3.90;;
15112;SDS011;7657;50.140;7.076;2022-10-17T04:40:26;5.68;;;3.33;;
15112;SDS011;7657;50.140;7.076;2022-10-17T04:42:53;6.18;;;3.45;;
15112;SDS011;7657;50.140;7.076;2022-10-17T04:45:20;5.05;;;3.40;;
15112;SDS011;7657;50.140;7.076;2022-10-17T04:47:48;6.40;;;4.00;;
15112;SDS011;7657;50.140;7.076;2022-10-17T04:50:15;5.22;;;3.53;;
15112;SDS011;7657;50.140;7.076;2022-10-17T04:52:42;6.22;;;3.53;;
15112;SDS011;7657;50.140;7.076;2022-10-17T04:55:08;5.50;;;3.67;;
15112;SDS011;7657;50.140;7.076;2022-10-17T04:57:35;3.60;;;3.25;;
15112;SDS011;7657;50.140;7.076;2022-10-17T05:00:03;3.92;;;3.53;;
15112;SDS011;7657;50.140;7.076;2022-10-17T05:02:30;5.22;;;3.70;;
15112;SDS011;7657;50.140;7.076;2022-10-17T05:04:58;8.90;;;3.85;;
15112;SDS011;7657;50.140;7.076;2022-10-17T05:07:25;6.57;;;3.92;;
15112;SDS011;7657;50.140;7.076;2022-10-17T05:09:52;8.18;;;3.92;;
15112;SDS011;7657;50.140;7.076;2022-10-17T05:12:19;5.28;;;3.70;;
15112;SDS011;7657;50.140;7.076;2022-10-17T05:14:46;4.50;;;4.03;;
15112;SDS011;7657;50.140;7.076;2022-10-17T05:17:13;8.07;;;3.63;;
15112;SDS011;7657;50.140;7.076;2022-10-17T05:19:40;7.93;;;4.35;;
15112;SDS011;7657;50.140;7.076;2022-10-17T05:22:08;4.25;;;3.50;;
15112;SDS011;7657;50.140;7.076;2022-10-17T05:24:35;5.38;;;3.55;;
15112;SDS011;7657;50.140;7.076;2022-10-17T05:27:02;7.40;;;3.67;;
15112;SDS011;7657;50.140;7.076;2022-10-17T05:29:29;3.63;;;3.33;;
15112;SDS011;7657;50.140;7.076;2022-10-17T05:31:56;4.60;;;3.42;;
15112;SDS011;7657;50.140;7.076;2022-10-17T05:34:23;5.22;;;3.80;;
15112;SDS011;7657;50.140;7.076;2022-10-17T05:36:50;4.63;;;3.40;;
15112;SDS011;7657;50.140;7.076;2022-10-17T05:39:18;5.65;;;3.88;;
15112;SDS011;7657;50.140;7.076;2022-10-17T05:41:45;5.38;;;3.80;;
15112;SDS011;7657;50.140;7.076;2022-10-17T05:44:12;5.13;;;3.60;;
15112;SDS011;7657;50.140;7.076;2022-10-17T05:46:39;8.55;;;3.97;;
15112;SDS011;7657;50.140;7.076;2022-10-17T05:49:08;3.78;;;3.38;;
15112;SDS011;7657;50.140;7.076;2022-10-17T05:51:35;6.13;;;3.78;;
15112;SDS011;7657;50.140;7.076;2022-10-17T05:54:04;4.68;;;3.90;;
15112;SDS011;7657;50.140;7.076;2022-10-17T05:56:32;5.00;;;3.63;;
15112;SDS011;7657;50.140;7.076;2022-10-17T05:59:00;5.63;;;3.92;;
15112;SDS011;7657;50.140;7.076;2022-10-17T06:01:27;7.20;;;3.97;;
15112;SDS011;7657;50.140;7.076;2022-10-17T06:03:54;6.65;;;4.00;;
15112;SDS011;7657;50.140;7.076;2022-10-17T06:06:21;7.05;;;4.82;;
15112;SDS011;7657;50.140;7.076;2022-10-17T06:08:48;5.43;;;4.15;;
15112;SDS011;7657;50.140;7.076;2022-10-17T06:11:15;7.00;;;5.20;;
15112;SDS011;7657;50.140;7.076;2022-10-17T06:13:43;9.15;;;5.75;;
15112;SDS011;7657;50.140;7.076;2022-10-17T06:16:10;9.05;;;6.22;;
15112;SDS011;7657;50.140;7.076;2022-10-17T06:18:37;8.45;;;7.22;;
15112;SDS011;7657;50.140;7.076;2022-10-17T06:21:04;8.80;;;5.35;;
15112;SDS011;7657;50.140;7.076;2022-10-17T06:23:32;9.48;;;6.85;;
15112;SDS011;7657;50.140;7.076;2022-10-17T06:25:59;6.80;;;5.57;;
15112;SDS011;7657;50.140;7.076;2022-10-17T06:28:27;5.10;;;3.90;;
15112;SDS011;7657;50.140;7.076;2022-10-17T06:30:55;6.30;;;4.00;;
15112;SDS011;7657;50.140;7.076;2022-10-17T06:33:22;4.65;;;3.75;;
15112;SDS011;7657;50.140;7.076;2022-10-17T06:35:50;5.65;;;3.45;;
15112;SDS011;7657;50.140;7.076;2022-10-17T06:38:17;3.97;;;3.50;;
15112;SDS011;7657;50.140;7.076;2022-10-17T06:40:44;5.32;;;3.58;;
15112;SDS011;7657;50.140;7.076;2022-10-17T06:43:11;5.97;;;3.80;;
15112;SDS011;7657;50.140;7.076;2022-10-17T06:45:38;4.57;;;3.75;;
15112;SDS011;7657;50.140;7.076;2022-10-17T06:48:07;6.40;;;4.13;;
15112;SDS011;7657;50.140;7.076;2022-10-17T06:50:34;6.60;;;3.85;;
15112;SDS011;7657;50.140;7.076;2022-10-17T06:53:01;5.55;;;4.00;;
15112;SDS011;7657;50.140;7.076;2022-10-17T06:55:27;6.07;;;3.58;;
15112;SDS011;7657;50.140;7.076;2022-10-17T06:57:55;5.78;;;3.90;;
15112;SDS011;7657;50.140;7.076;2022-10-17T07:00:22;5.63;;;3.63;;
15112;SDS011;7657;50.140;7.076;2022-10-17T07:02:51;5.80;;;3.80;;
15112;SDS011;7657;50.140;7.076;2022-10-17T07:05:19;4.70;;;3.92;;
15112;SDS011;7657;50.140;7.076;2022-10-17T07:07:46;5.47;;;3.60;;
15112;SDS011;7657;50.140;7.076;2022-10-17T07:10:13;5.68;;;3.95;;
15112;SDS011;7657;50.140;7.076;2022-10-17T07:12:40;5.70;;;3.88;;
15112;SDS011;7657;50.140;7.076;2022-10-17T07:15:09;7.90;;;3.65;;
15112;SDS011;7657;50.140;7.076;2022-10-17T07:17:36;6.43;;;3.75;;
15112;SDS011;7657;50.140;7.076;2022-10-17T07:20:03;4.85;;;3.75;;
15112;SDS011;7657;50.140;7.076;2022-10-17T07:22:32;5.60;;;3.70;;
15112;SDS011;7657;50.140;7.076;2022-10-17T07:24:59;5.20;;;3.45;;
15112;SDS011;7657;50.140;7.076;2022-10-17T07:27:26;4.80;;;3.67;;
15112;SDS011;7657;50.140;7.076;2022-10-17T07:29:53;5.75;;;3.70;;
15112;SDS011;7657;50.140;7.076;2022-10-17T07:32:20;4.40;;;3.78;;
15112;SDS011;7657;50.140;7.076;2022-10-17T07:34:46;6.03;;;4.03;;
15112;SDS011;7657;50.140;7.076;2022-10-17T07:37:13;4.60;;;3.70;;
15112;SDS011;7657;50.140;7.076;2022-10-17T07:39:42;5.00;;;3.63;;
15112;SDS011;7657;50.140;7.076;2022-10-17T07:42:08;4.93;;;3.60;;
15112;SDS011;7657;50.140;7.076;2022-10-17T07:44:35;5.45;;;3.60;;
15112;SDS011;7657;50.140;7.076;2022-10-17T07:47:02;4.88;;;3.80;;
15112;SDS011;7657;50.140;7.076;2022-10-17T07:49:29;5.22;;;3.50;;
15112;SDS011;7657;50.140;7.076;2022-10-17T07:51:56;4.93;;;4.00;;
15112;SDS011;7657;50.140;7.076;2022-10-17T07:54:23;6.15;;;4.00;;
15112;SDS011;7657;50.140;7.076;2022-10-17T07:56:51;6.25;;;3.92;;
15112;SDS011;7657;50.140;7.076;2022-10-17T07:59:18;8.65;;;4.00;;
15112;SDS011;7657;50.140;7.076;2022-10-17T08:01:45;6.00;;;3.63;;
15112;SDS011;7657;50.140;7.076;2022-10-17T08:04:12;5.95;;;4.15;;
15112;SDS011;7657;50.140;7.076;2022-10-17T08:06:40;5.10;;;4.20;;
15112;SDS011;7657;50.140;7.076;2022-10-17T08:09:07;6.05;;;3.78;;
15112;SDS011;7657;50.140;7.076;2022-10-17T08:11:34;4.80;;;3.97;;
15112;SDS011;7657;50.140;7.076;2022-10-17T08:14:02;4.18;;;3.35;;
15112;SDS011;7657;50.140;7.076;2022-10-17T08:16:29;4.95;;;4.03;;
15112;SDS011;7657;50.140;7.076;2022-10-17T08:18:56;5.63;;;3.92;;
15112;SDS011;7657;50.140;7.076;2022-10-17T08:21:23;7.10;;;3.67;;
15112;SDS011;7657;50.140;7.076;2022-10-17T08:23:50;5.20;;;3.90;;
15112;SDS011;7657;50.140;7.076;2022-10-17T08:26:17;4.18;;;3.47;;
15112;SDS011;7657;50.140;7.076;2022-10-17T08:28:44;5.53;;;3.80;;
15112;SDS011;7657;50.140;7.076;2022-10-17T08:31:13;7.13;;;3.42;;
15112;SDS011;7657;50.140;7.076;2022-10-17T08:33:43;5.30;;;3.50;;
15112;SDS011;7657;50.140;7.076;2022-10-17T08:36:11;8.45;;;3.78;;
15112;SDS011;7657;50.140;7.076;2022-10-17T08:38:40;6.38;;;3.95;;
15112;SDS011;7657;50.140;7.076;2022-10-17T08:41:12;6.60;;;3.80;;
15112;SDS011;7657;50.140;7.076;2022-10-17T08:43:47;4.53;;;3.83;;
15112;SDS011;7657;50.140;7.076;2022-10-17T08:46:27;5.30;;;3.80;;
15112;SDS011;7657;50.140;7.076;2022-10-17T08:48:56;4.80;;;3.80;;
15112;SDS011;7657;50.140;7.076;2022-10-17T08:51:27;5.93;;;3.88;;
15112;SDS011;7657;50.140;7.076;2022-10-17T08:54:00;5.20;;;3.70;;
15112;SDS011;7657;50.140;7.076;2022-10-17T08:56:37;5.03;;;3.53;;
15112;SDS011;7657;50.140;7.076;2022-10-17T08:59:09;6.97;;;3.75;;
15112;SDS011;7657;50.140;7.076;2022-10-17T09:01:40;6.30;;;3.47;;
15112;SDS011;7657;50.140;7.076;2022-10-17T09:07:12;3.63;;;3.20;;
15112;SDS011;7657;50.140;7.076;2022-10-17T09:09:47;7.78;;;3.80;;
15112;SDS011;7657;50.140;7.076;2022-10-17T09:12:25;7.53;;;4.10;;
15112;SDS011;7657;50.140;7.076;2022-10-17T09:15:15;7.03;;;3.33;;
15112;SDS011;7657;50.140;7.076;2022-10-17T09:17:58;6.43;;;3.55;;
15112;SDS011;7657;50.140;7.076;2022-10-17T09:20:35;5.28;;;3.45;;
15112;SDS011;7657;50.140;7.076;2022-10-17T09:23:05;9.95;;;3.60;;
15112;SDS011;7657;50.140;7.076;2022-10-17T09:25:39;4.30;;;3.35;;
15112;SDS011;7657;50.140;7.076;2022-10-17T09:28:13;3.33;;;3.03;;
15112;SDS011;7657;50.140;7.076;2022-10-17T09:30:43;3.85;;;3.17;;
15112;SDS011;7657;50.140;7.076;2022-10-17T09:33:14;5.55;;;3.58;;
15112;SDS011;7657;50.140;7.076;2022-10-17T09:35:43;4.38;;;2.88;;
15112;SDS011;7657;50.140;7.076;2022-10-17T09:38:13;4.93;;;3.50;;
15112;SDS011;7657;50.140;7.076;2022-10-17T09:40:42;5.25;;;3.17;;
15112;SDS011;7657;50.140;7.076;2022-10-17T09:43:12;4.90;;;3.13;;
15112;SDS011;7657;50.140;7.076;2022-10-17T09:45:42;4.28;;;3.05;;
15112;SDS011;7657;50.140;7.076;2022-10-17T09:48:28;4.38;;;3.05;;
15112;SDS011;7657;50.140;7.076;2022-10-17T09:51:00;4.47;;;3.40;;
15112;SDS011;7657;50.140;7.076;2022-10-17T09:53:29;5.07;;;3.30;;
15112;SDS011;7657;50.140;7.076;2022-10-17T09:56:02;6.03;;;3.60;;
15112;SDS011;7657;50.140;7.076;2022-10-17T09:58:40;7.68;;;3.25;;
15112;SDS011;7657;50.140;7.076;2022-10-17T10:01:14;4.95;;;3.13;;
15112;SDS011;7657;50.140;7.076;2022-10-17T10:03:44;6.10;;;3.30;;
15112;SDS011;7657;50.140;7.076;2022-10-17T10:06:12;5.80;;;3.05;;
15112;SDS011;7657;50.140;7.076;2022-10-17T10:08:47;5.57;;;3.13;;
15112;SDS011;7657;50.140;7.076;2022-10-17T10:11:16;3.15;;;2.72;;
15112;SDS011;7657;50.140;7.076;2022-10-17T10:13:44;3.75;;;2.75;;
15112;SDS011;7657;50.140;7.076;2022-10-17T10:16:14;4.43;;;3.03;;
15112;SDS011;7657;50.140;7.076;2022-10-17T10:18:46;6.18;;;3.22;;
15112;SDS011;7657;50.140;7.076;2022-10-17T10:21:15;4.35;;;2.72;;
15112;SDS011;7657;50.140;7.076;2022-10-17T10:23:44;6.78;;;3.30;;
15112;SDS011;7657;50.140;7.076;2022-10-17T10:26:29;6.60;;;3.22;;
15112;SDS011;7657;50.140;7.076;2022-10-17T10:29:02;4.07;;;3.35;;
15112;SDS011;7657;50.140;7.076;2022-10-17T10:31:32;4.93;;;3.40;;
15112;SDS011;7657;50.140;7.076;2022-10-17T10:34:12;4.20;;;2.80;;
15112;SDS011;7657;50.140;7.076;2022-10-17T10:36:47;6.32;;;2.83;;
15112;SDS011;7657;50.140;7.076;2022-10-17T10:39:34;6.53;;;4.20;;
15112;SDS011;7657;50.140;7.076;2022-10-17T10:42:21;7.13;;;4.03;;
15112;SDS011;7657;50.140;7.076;2022-10-17T10:44:51;5.03;;;4.00;;
15112;SDS011;7657;50.140;7.076;2022-10-17T10:47:21;6.50;;;3.53;;
15112;SDS011;7657;50.140;7.076;2022-10-17T10:50:05;5.88;;;3.05;;
15112;SDS011;7657;50.140;7.076;2022-10-17T10:52:44;4.38;;;3.20;;
15112;SDS011;7657;50.140;7.076;2022-10-17T10:55:19;6.20;;;3.22;;
15112;SDS011;7657;50.140;7.076;2022-10-17T10:57:53;5.15;;;3.17;;
15112;SDS011;7657;50.140;7.076;2022-10-17T11:00:23;4.03;;;3.13;;
15112;SDS011;7657;50.140;7.076;2022-10-17T11:02:55;5.53;;;2.85;;
15112;SDS011;7657;50.140;7.076;2022-10-17T11:05:32;4.18;;;3.00;;
15112;SDS011;7657;50.140;7.076;2022-10-17T11:08:05;4.38;;;3.22;;
15112;SDS011;7657;50.140;7.076;2022-10-17T11:10:46;3.53;;;2.70;;
15112;SDS011;7657;50.140;7.076;2022-10-17T11:13:28;5.47;;;3.30;;
15112;SDS011;7657;50.140;7.076;2022-10-17T11:16:01;7.18;;;2.92;;
15112;SDS011;7657;50.140;7.076;2022-10-17T11:18:38;4.20;;;3.15;;
15112;SDS011;7657;50.140;7.076;2022-10-17T11:21:12;4.00;;;2.78;;
15112;SDS011;7657;50.140;7.076;2022-10-17T11:23:43;3.17;;;2.72;;
15112;SDS011;7657;50.140;7.076;2022-10-17T11:26:14;4.80;;;3.00;;
15112;SDS011;7657;50.140;7.076;2022-10-17T11:28:51;9.75;;;3.30;;
15112;SDS011;7657;50.140;7.076;2022-10-17T11:31:19;7.18;;;3.17;;
15112;SDS011;7657;50.140;7.076;2022-10-17T11:33:48;4.53;;;3.05;;
15112;SDS011;7657;50.140;7.076;2022-10-17T11:36:21;5.45;;;2.78;;
15112;SDS011;7657;50.140;7.076;2022-10-17T11:38:53;5.00;;;2.70;;
15112;SDS011;7657;50.140;7.076;2022-10-17T11:41:24;4.85;;;3.00;;
15112;SDS011;7657;50.140;7.076;2022-10-17T11:43:56;7.70;;;2.70;;
15112;SDS011;7657;50.140;7.076;2022-10-17T11:46:26;4.90;;;2.85;;
15112;SDS011;7657;50.140;7.076;2022-10-17T11:49:01;3.95;;;2.72;;
15112;SDS011;7657;50.140;7.076;2022-10-17T11:51:39;5.15;;;2.97;;
15112;SDS011;7657;50.140;7.076;2022-10-17T11:54:10;10.98;;;3.08;;
15112;SDS011;7657;50.140;7.076;2022-10-17T11:56:42;6.60;;;2.85;;
15112;SDS011;7657;50.140;7.076;2022-10-17T12:02:11;7.82;;;3.85;;
15112;SDS011;7657;50.140;7.076;2022-10-17T12:04:47;5.03;;;2.58;;
15112;SDS011;7657;50.140;7.076;2022-10-17T12:07:24;4.03;;;2.58;;
15112;SDS011;7657;50.140;7.076;2022-10-17T12:10:04;7.38;;;5.70;;
15112;SDS011;7657;50.140;7.076;2022-10-17T12:12:43;5.47;;;4.20;;
15112;SDS011;7657;50.140;7.076;2022-10-17T12:15:26;4.32;;;2.90;;
15112;SDS011;7657;50.140;7.076;2022-10-17T12:17:54;5.40;;;3.15;;
15112;SDS011;7657;50.140;7.076;2022-10-17T12:20:24;6.55;;;3.67;;
15112;SDS011;7657;50.140;7.076;2022-10-17T12:22:56;6.57;;;3.00;;
15112;SDS011;7657;50.140;7.076;2022-10-17T12:25:30;3.45;;;2.88;;
15112;SDS011;7657;50.140;7.076;2022-10-17T12:28:11;6.60;;;3.20;;
15112;SDS011;7657;50.140;7.076;2022-10-17T12:30:53;3.88;;;2.67;;
15112;SDS011;7657;50.140;7.076;2022-10-17T12:33:26;6.10;;;3.20;;
15112;SDS011;7657;50.140;7.076;2022-10-17T12:48:10;5.03;;;3.00;;
15112;SDS011;7657;50.140;7.076;2022-10-17T12:53:30;4.25;;;3.40;;
15112;SDS011;7657;50.140;7.076;2022-10-17T12:56:04;8.95;;;3.08;;
15112;SDS011;7657;50.140;7.076;2022-10-17T12:58:33;3.78;;;2.33;;
15112;SDS011;7657;50.140;7.076;2022-10-17T13:01:00;3.63;;;2.38;;
15112;SDS011;7657;50.140;7.076;2022-10-17T13:03:30;5.10;;;2.40;;
15112;SDS011;7657;50.140;7.076;2022-10-17T13:06:01;5.60;;;2.40;;
15112;SDS011;7657;50.140;7.076;2022-10-17T13:08:32;5.28;;;2.63;;
15112;SDS011;7657;50.140;7.076;2022-10-17T13:11:02;5.30;;;2.63;;
15112;SDS011;7657;50.140;7.076;2022-10-17T13:13:35;7.18;;;2.95;;
15112;SDS011;7657;50.140;7.076;2022-10-17T13:16:06;4.95;;;2.75;;
15112;SDS011;7657;50.140;7.076;2022-10-17T13:18:33;6.10;;;3.28;;
15112;SDS011;7657;50.140;7.076;2022-10-17T13:21:02;4.63;;;3.00;;
15112;SDS011;7657;50.140;7.076;2022-10-17T13:23:32;5.97;;;2.65;;
15112;SDS011;7657;50.140;7.076;2022-10-17T13:26:01;4.68;;;2.50;;
15112;SDS011;7657;50.140;7.076;2022-10-17T13:28:30;9.18;;;2.72;;
15112;SDS011;7657;50.140;7.076;2022-10-17T13:30:58;3.13;;;2.17;;
15112;SDS011;7657;50.140;7.076;2022-10-17T13:33:30;3.95;;;2.40;;
15112;SDS011;7657;50.140;7.076;2022-10-17T13:35:59;4.13;;;2.45;;
15112;SDS011;7657;50.140;7.076;2022-10-17T13:38:29;8.80;;;3.20;;
15112;SDS011;7657;50.140;7.076;2022-10-17T13:40:58;6.63;;;2.40;;
15112;SDS011;7657;50.140;7.076;2022-10-17T13:43:26;4.93;;;2.40;;
15112;SDS011;7657;50.140;7.076;2022-10-17T13:45:55;4.28;;;2.40;;
15112;SDS011;7657;50.140;7.076;2022-10-17T13:48:29;6.63;;;2.58;;
15112;SDS011;7657;50.140;7.076;2022-10-17T13:50:58;4.18;;;2.13;;
15112;SDS011;7657;50.140;7.076;2022-10-17T13:53:29;6.88;;;2.50;;
15112;SDS011;7657;50.140;7.076;2022-10-17T13:55:58;4.80;;;2.80;;
15112;SDS011;7657;50.140;7.076;2022-10-17T13:58:29;4.85;;;2.22;;
15112;SDS011;7657;50.140;7.076;2022-10-17T14:01:00;4.47;;;2.58;;
15112;SDS011;7657;50.140;7.076;2022-10-17T14:03:27;4.18;;;2.40;;
15112;SDS011;7657;50.140;7.076;2022-10-17T14:05:58;3.50;;;2.17;;
15112;SDS011;7657;50.140;7.076;2022-10-17T14:08:29;4.32;;;2.17;;
15112;SDS011;7657;50.140;7.076;2022-10-17T14:10:58;5.80;;;2.30;;
15112;SDS011;7657;50.140;7.076;2022-10-17T14:13:27;4.18;;;2.38;;
15112;SDS011;7657;50.140;7.076;2022-10-17T14:15:59;3.45;;;2.00;;
15112;SDS011;7657;50.140;7.076;2022-10-17T14:18:29;5.15;;;2.40;;
15112;SDS011;7657;50.140;7.076;2022-10-17T14:20:58;5.78;;;2.17;;
15112;SDS011;7657;50.140;7.076;2022-10-17T14:23:34;4.22;;;1.95;;
15112;SDS011;7657;50.140;7.076;2022-10-17T14:26:03;3.60;;;1.95;;
15112;SDS011;7657;50.140;7.076;2022-10-17T14:28:35;2.92;;;2.03;;
15112;SDS011;7657;50.140;7.076;2022-10-17T14:31:12;4.40;;;2.20;;
15112;SDS011;7657;50.140;7.076;2022-10-17T14:33:47;4.15;;;2.17;;
15112;SDS011;7657;50.140;7.076;2022-10-17T14:36:15;5.07;;;2.40;;
15112;SDS011;7657;50.140;7.076;2022-10-17T14:38:45;6.63;;;2.30;;
15112;SDS011;7657;50.140;7.076;2022-10-17T14:41:18;8.95;;;2.28;;
15112;SDS011;7657;50.140;7.076;2022-10-17T14:43:52;4.47;;;2.15;;
15112;SDS011;7657;50.140;7.076;2022-10-17T14:46:22;4.63;;;1.88;;
15112;SDS011;7657;50.140;7.076;2022-10-17T14:48:51;4.18;;;2.17;;
15112;SDS011;7657;50.140;7.076;2022-10-17T14:51:19;6.15;;;2.35;;
15112;SDS011;7657;50.140;7.076;2022-10-17T14:53:58;4.57;;;2.05;;
15112;SDS011;7657;50.140;7.076;2022-10-17T14:56:32;3.78;;;2.00;;
15112;SDS011;7657;50.140;7.076;2022-10-17T14:59:01;6.15;;;2.33;;
15112;SDS011;7657;50.140;7.076;2022-10-17T15:01:31;5.20;;;2.40;;
15112;SDS011;7657;50.140;7.076;2022-10-17T15:03:58;5.95;;;2.20;;
15112;SDS011;7657;50.140;7.076;2022-10-17T15:06:26;7.78;;;2.38;;
15112;SDS011;7657;50.140;7.076;2022-10-17T15:08:55;6.68;;;2.15;;
15112;SDS011;7657;50.140;7.076;2022-10-17T15:11:22;6.53;;;2.20;;
15112;SDS011;7657;50.140;7.076;2022-10-17T15:13:49;4.22;;;2.10;;
15112;SDS011;7657;50.140;7.076;2022-10-17T15:16:17;5.22;;;2.25;;
15112;SDS011;7657;50.140;7.076;2022-10-17T15:18:47;3.47;;;2.30;;
15112;SDS011;7657;50.140;7.076;2022-10-17T15:21:15;4.63;;;2.42;;
15112;SDS011;7657;50.140;7.076;2022-10-17T15:23:43;6.43;;;2.75;;
15112;SDS011;7657;50.140;7.076;2022-10-17T15:26:11;7.90;;;2.58;;
15112;SDS011;7657;50.140;7.076;2022-10-17T15:28:40;8.20;;;2.35;;
15112;SDS011;7657;50.140;7.076;2022-10-17T15:31:08;7.80;;;2.45;;
15112;SDS011;7657;50.140;7.076;2022-10-17T15:33:37;4.82;;;2.28;;
15112;SDS011;7657;50.140;7.076;2022-10-17T15:36:13;5.72;;;3.05;;
15112;SDS011;7657;50.140;7.076;2022-10-17T15:38:47;11.48;;;6.40;;
15112;SDS011;7657;50.140;7.076;2022-10-17T15:41:17;15.27;;;10.32;;
15112;SDS011;7657;50.140;7.076;2022-10-17T15:43:44;8.23;;;4.90;;